sensor_id;sensor_type;location;lat;lon;timestamp;P1;durP1;ratioP1;P2;durP2;ratioP2
9422;SDS011;65863;49.506;10.400;2023-03-05T00:02:05;34.80;;;17.60;;
9422;SDS011;65863;49.506;10.400;2023-03-05T00:04:49;31.13;;;17.03;;
9422;SDS011;65863;49.506;10.400;2023-03-05T00:07:33;28.93;;;16.97;;
9422;SDS011;65863;49.506;10.400;2023-03-05T00:10:17;30.87;;;18.27;;
9422;SDS011;65863;49.506;10.400;2023-03-05T00:13:03;36.07;;;17.23;;
9422;SDS011;65863;49.506;10.400;2023-03-05T00:15:48;31.83;;;16.57;;
9422;SDS011;65863;49.506;10.400;2023-03-05T00:18:32;32.73;;;17.80;;
9422;SDS011;65863;49.506;10.400;2023-03-05T00:24:10;32.90;;;17.27;;
9422;SDS011;65863;49.506;10.400;2023-03-05T00:26:59;32.80;;;17.37;;
9422;SDS011;65863;49.506;10.400;2023-03-05T00:29:43;31.43;;;18.07;;
9422;SDS011;65863;49.506;10.400;2023-03-05T00:32:27;33.27;;;18.10;;
9422;SDS011;65863;49.506;10.400;2023-03-05T00:35:11;32.43;;;18.33;;
9422;SDS011;65863;49.506;10.400;2023-03-05T00:37:55;34.63;;;18.33;;
9422;SDS011;65863;49.506;10.400;2023-03-05T00:40:40;29.90;;;17.93;;
9422;SDS011;65863;49.506;10.400;2023-03-05T00:43:24;32.97;;;18.30;;
9422;SDS011;65863;49.506;10.400;2023-03-05T00:46:08;31.73;;;16.40;;
9422;SDS011;65863;49.506;10.400;2023-03-05T00:48:53;31.87;;;17.67;;
9422;SDS011;65863;49.506;10.400;2023-03-05T00:51:37;35.43;;;18.33;;
9422;SDS011;65863;49.506;10.400;2023-03-05T00:54:21;35.67;;;17.77;;
9422;SDS011;65863;49.506;10.400;2023-03-05T00:57:05;36.30;;;18.37;;
9422;SDS011;65863;49.506;10.400;2023-03-05T00:59:49;38.57;;;18.63;;
9422;SDS011;65863;49.506;10.400;2023-03-05T01:02:33;34.97;;;18.30;;
9422;SDS011;65863;49.506;10.400;2023-03-05T01:05:17;37.97;;;18.67;;
9422;SDS011;65863;49.506;10.400;2023-03-05T01:08:01;36.30;;;18.10;;
9422;SDS011;65863;49.506;10.400;2023-03-05T01:10:46;36.80;;;18.13;;
9422;SDS011;65863;49.506;10.400;2023-03-05T01:13:29;32.63;;;16.93;;
9422;SDS011;65863;49.506;10.400;2023-03-05T01:16:13;38.00;;;17.43;;
9422;SDS011;65863;49.506;10.400;2023-03-05T01:18:57;35.60;;;17.97;;
9422;SDS011;65863;49.506;10.400;2023-03-05T01:21:41;33.67;;;16.43;;
9422;SDS011;65863;49.506;10.400;2023-03-05T01:24:25;33.10;;;16.77;;
9422;SDS011;65863;49.506;10.400;2023-03-05T01:27:09;42.87;;;18.37;;
9422;SDS011;65863;49.506;10.400;2023-03-05T01:29:53;40.83;;;18.43;;
9422;SDS011;65863;49.506;10.400;2023-03-05T01:32:37;35.43;;;17.80;;
9422;SDS011;65863;49.506;10.400;2023-03-05T01:35:22;33.77;;;18.37;;
9422;SDS011;65863;49.506;10.400;2023-03-05T01:38:07;30.13;;;17.77;;
9422;SDS011;65863;49.506;10.400;2023-03-05T01:40:52;33.07;;;17.43;;
9422;SDS011;65863;49.506;10.400;2023-03-05T01:43:37;36.67;;;16.87;;
9422;SDS011;65863;49.506;10.400;2023-03-05T01:46:31;38.63;;;18.50;;
9422;SDS011;65863;49.506;10.400;2023-03-05T01:49:31;27.33;;;15.83;;
9422;SDS011;65863;49.506;10.400;2023-03-05T01:52:19;31.23;;;17.60;;
9422;SDS011;65863;49.506;10.400;2023-03-05T01:55:07;34.93;;;17.33;;
9422;SDS011;65863;49.506;10.400;2023-03-05T01:57:55;32.97;;;16.63;;
9422;SDS011;65863;49.506;10.400;2023-03-05T02:00:45;27.77;;;16.27;;
9422;SDS011;65863;49.506;10.400;2023-03-05T02:03:31;35.03;;;17.97;;
9422;SDS011;65863;49.506;10.400;2023-03-05T02:06:17;35.13;;;18.20;;
9422;SDS011;65863;49.506;10.400;2023-03-05T02:09:01;33.20;;;18.37;;
9422;SDS011;65863;49.506;10.400;2023-03-05T02:11:45;28.93;;;16.23;;
9422;SDS011;65863;49.506;10.400;2023-03-05T02:14:29;35.17;;;17.70;;
9422;SDS011;65863;49.506;10.400;2023-03-05T02:17:14;32.50;;;16.77;;
9422;SDS011;65863;49.506;10.400;2023-03-05T02:20:02;30.10;;;16.83;;
9422;SDS011;65863;49.506;10.400;2023-03-05T02:22:50;36.57;;;17.00;;
9422;SDS011;65863;49.506;10.400;2023-03-05T02:25:34;34.00;;;18.73;;
9422;SDS011;65863;49.506;10.400;2023-03-05T02:28:25;34.93;;;17.47;;
9422;SDS011;65863;49.506;10.400;2023-03-05T02:31:18;34.03;;;17.93;;
9422;SDS011;65863;49.506;10.400;2023-03-05T02:34:04;36.73;;;18.20;;
9422;SDS011;65863;49.506;10.400;2023-03-05T02:36:49;31.77;;;17.30;;
9422;SDS011;65863;49.506;10.400;2023-03-05T02:39:34;26.10;;;16.83;;
9422;SDS011;65863;49.506;10.400;2023-03-05T02:42:19;34.23;;;17.47;;
9422;SDS011;65863;49.506;10.400;2023-03-05T02:45:03;34.10;;;17.50;;
9422;SDS011;65863;49.506;10.400;2023-03-05T02:47:48;33.47;;;17.83;;
9422;SDS011;65863;49.506;10.400;2023-03-05T02:50:32;32.67;;;17.00;;
9422;SDS011;65863;49.506;10.400;2023-03-05T02:53:16;34.77;;;18.17;;
9422;SDS011;65863;49.506;10.400;2023-03-05T02:56:01;30.27;;;17.07;;
9422;SDS011;65863;49.506;10.400;2023-03-05T02:58:45;30.90;;;17.10;;
9422;SDS011;65863;49.506;10.400;2023-03-05T03:01:29;34.60;;;16.87;;
9422;SDS011;65863;49.506;10.400;2023-03-05T03:04:15;30.20;;;16.20;;
9422;SDS011;65863;49.506;10.400;2023-03-05T03:06:59;32.47;;;18.43;;
9422;SDS011;65863;49.506;10.400;2023-03-05T03:09:43;30.83;;;16.67;;
9422;SDS011;65863;49.506;10.400;2023-03-05T03:12:27;29.23;;;17.10;;
9422;SDS011;65863;49.506;10.400;2023-03-05T03:15:12;29.43;;;17.20;;
9422;SDS011;65863;49.506;10.400;2023-03-05T03:17:58;31.67;;;16.37;;
9422;SDS011;65863;49.506;10.400;2023-03-05T03:20:42;30.47;;;17.47;;
9422;SDS011;65863;49.506;10.400;2023-03-05T03:23:26;30.00;;;17.23;;
9422;SDS011;65863;49.506;10.400;2023-03-05T03:26:11;31.33;;;17.80;;
9422;SDS011;65863;49.506;10.400;2023-03-05T03:28:56;33.13;;;17.70;;
9422;SDS011;65863;49.506;10.400;2023-03-05T03:31:40;28.37;;;15.97;;
9422;SDS011;65863;49.506;10.400;2023-03-05T03:34:24;31.93;;;16.93;;
9422;SDS011;65863;49.506;10.400;2023-03-05T03:37:08;29.50;;;16.40;;
9422;SDS011;65863;49.506;10.400;2023-03-05T03:39:54;26.20;;;16.77;;
9422;SDS011;65863;49.506;10.400;2023-03-05T03:42:38;28.20;;;16.17;;
9422;SDS011;65863;49.506;10.400;2023-03-05T03:45:22;32.50;;;17.63;;
9422;SDS011;65863;49.506;10.400;2023-03-05T03:48:07;31.30;;;17.23;;
9422;SDS011;65863;49.506;10.400;2023-03-05T03:50:51;35.60;;;17.13;;
9422;SDS011;65863;49.506;10.400;2023-03-05T03:53:35;35.33;;;18.40;;
9422;SDS011;65863;49.506;10.400;2023-03-05T03:56:20;34.83;;;17.07;;
9422;SDS011;65863;49.506;10.400;2023-03-05T03:59:04;31.90;;;16.87;;
9422;SDS011;65863;49.506;10.400;2023-03-05T04:01:49;38.33;;;18.43;;
9422;SDS011;65863;49.506;10.400;2023-03-05T04:04:33;34.67;;;18.03;;
9422;SDS011;65863;49.506;10.400;2023-03-05T04:07:18;35.43;;;17.33;;
9422;SDS011;65863;49.506;10.400;2023-03-05T04:10:02;32.40;;;17.80;;
9422;SDS011;65863;49.506;10.400;2023-03-05T04:12:46;38.17;;;17.90;;
9422;SDS011;65863;49.506;10.400;2023-03-05T04:15:31;38.03;;;18.07;;
9422;SDS011;65863;49.506;10.400;2023-03-05T04:18:16;40.40;;;19.40;;
9422;SDS011;65863;49.506;10.400;2023-03-05T04:21:00;35.90;;;18.57;;
9422;SDS011;65863;49.506;10.400;2023-03-05T04:23:44;35.37;;;18.23;;
9422;SDS011;65863;49.506;10.400;2023-03-05T04:26:29;42.67;;;20.10;;
9422;SDS011;65863;49.506;10.400;2023-03-05T04:29:13;37.33;;;19.77;;
9422;SDS011;65863;49.506;10.400;2023-03-05T04:31:57;36.17;;;17.43;;
9422;SDS011;65863;49.506;10.400;2023-03-05T04:34:41;43.20;;;20.90;;
9422;SDS011;65863;49.506;10.400;2023-03-05T04:37:25;41.07;;;19.17;;
9422;SDS011;65863;49.506;10.400;2023-03-05T04:40:09;40.97;;;19.83;;
9422;SDS011;65863;49.506;10.400;2023-03-05T04:42:54;45.87;;;19.17;;
9422;SDS011;65863;49.506;10.400;2023-03-05T04:45:39;42.43;;;19.40;;
9422;SDS011;65863;49.506;10.400;2023-03-05T04:48:23;42.83;;;19.77;;
9422;SDS011;65863;49.506;10.400;2023-03-05T04:51:08;39.13;;;19.13;;
9422;SDS011;65863;49.506;10.400;2023-03-05T04:53:52;42.03;;;18.93;;
9422;SDS011;65863;49.506;10.400;2023-03-05T04:56:36;38.10;;;18.73;;
9422;SDS011;65863;49.506;10.400;2023-03-05T04:59:20;40.07;;;19.53;;
9422;SDS011;65863;49.506;10.400;2023-03-05T05:02:04;45.50;;;19.97;;
9422;SDS011;65863;49.506;10.400;2023-03-05T05:04:51;35.97;;;18.23;;
9422;SDS011;65863;49.506;10.400;2023-03-05T05:07:36;41.33;;;20.40;;
9422;SDS011;65863;49.506;10.400;2023-03-05T05:10:20;39.00;;;19.27;;
9422;SDS011;65863;49.506;10.400;2023-03-05T05:13:04;37.47;;;18.90;;
9422;SDS011;65863;49.506;10.400;2023-03-05T05:15:49;36.57;;;20.10;;
9422;SDS011;65863;49.506;10.400;2023-03-05T05:18:33;40.43;;;18.93;;
9422;SDS011;65863;49.506;10.400;2023-03-05T05:21:17;39.13;;;19.33;;
9422;SDS011;65863;49.506;10.400;2023-03-05T05:24:03;44.97;;;19.97;;
9422;SDS011;65863;49.506;10.400;2023-03-05T05:26:47;37.53;;;19.47;;
9422;SDS011;65863;49.506;10.400;2023-03-05T05:29:31;40.67;;;18.90;;
9422;SDS011;65863;49.506;10.400;2023-03-05T05:32:16;40.53;;;19.00;;
9422;SDS011;65863;49.506;10.400;2023-03-05T05:35:02;34.63;;;17.80;;
9422;SDS011;65863;49.506;10.400;2023-03-05T05:37:46;37.43;;;18.10;;
9422;SDS011;65863;49.506;10.400;2023-03-05T05:40:30;39.30;;;18.10;;
9422;SDS011;65863;49.506;10.400;2023-03-05T05:43:14;36.90;;;17.67;;
9422;SDS011;65863;49.506;10.400;2023-03-05T05:45:59;35.83;;;17.90;;
9422;SDS011;65863;49.506;10.400;2023-03-05T05:48:44;40.77;;;18.10;;
9422;SDS011;65863;49.506;10.400;2023-03-05T05:51:28;32.67;;;17.67;;
9422;SDS011;65863;49.506;10.400;2023-03-05T05:54:13;34.57;;;17.27;;
9422;SDS011;65863;49.506;10.400;2023-03-05T05:56:57;33.67;;;18.20;;
9422;SDS011;65863;49.506;10.400;2023-03-05T05:59:41;36.40;;;18.03;;
9422;SDS011;65863;49.506;10.400;2023-03-05T06:02:25;37.67;;;18.57;;
9422;SDS011;65863;49.506;10.400;2023-03-05T06:05:11;31.43;;;17.07;;
9422;SDS011;65863;49.506;10.400;2023-03-05T06:07:57;38.77;;;18.50;;
9422;SDS011;65863;49.506;10.400;2023-03-05T06:10:41;35.87;;;18.30;;
9422;SDS011;65863;49.506;10.400;2023-03-05T06:13:25;33.83;;;17.60;;
9422;SDS011;65863;49.506;10.400;2023-03-05T06:16:11;33.83;;;17.27;;
9422;SDS011;65863;49.506;10.400;2023-03-05T06:18:57;34.13;;;17.50;;
9422;SDS011;65863;49.506;10.400;2023-03-05T06:21:42;35.37;;;18.03;;
9422;SDS011;65863;49.506;10.400;2023-03-05T06:24:27;36.07;;;18.17;;
9422;SDS011;65863;49.506;10.400;2023-03-05T06:27:11;32.87;;;16.57;;
9422;SDS011;65863;49.506;10.400;2023-03-05T06:29:55;29.43;;;16.97;;
9422;SDS011;65863;49.506;10.400;2023-03-05T06:32:39;33.00;;;18.03;;
9422;SDS011;65863;49.506;10.400;2023-03-05T06:35:23;30.30;;;17.67;;
9422;SDS011;65863;49.506;10.400;2023-03-05T06:38:07;28.67;;;16.40;;
9422;SDS011;65863;49.506;10.400;2023-03-05T06:40:51;33.80;;;17.50;;
9422;SDS011;65863;49.506;10.400;2023-03-05T06:43:36;32.27;;;15.43;;
9422;SDS011;65863;49.506;10.400;2023-03-05T06:46:23;28.03;;;15.87;;
9422;SDS011;65863;49.506;10.400;2023-03-05T06:49:09;29.50;;;15.57;;
9422;SDS011;65863;49.506;10.400;2023-03-05T06:51:54;29.20;;;15.67;;
9422;SDS011;65863;49.506;10.400;2023-03-05T06:54:38;26.63;;;15.00;;
9422;SDS011;65863;49.506;10.400;2023-03-05T06:57:23;29.20;;;16.10;;
9422;SDS011;65863;49.506;10.400;2023-03-05T07:00:07;61.80;;;37.13;;
9422;SDS011;65863;49.506;10.400;2023-03-05T07:02:54;33.83;;;17.30;;
9422;SDS011;65863;49.506;10.400;2023-03-05T07:05:38;30.10;;;16.60;;
9422;SDS011;65863;49.506;10.400;2023-03-05T07:08:23;50.10;;;29.20;;
9422;SDS011;65863;49.506;10.400;2023-03-05T07:11:11;29.63;;;18.87;;
9422;SDS011;65863;49.506;10.400;2023-03-05T07:13:56;30.10;;;17.43;;
9422;SDS011;65863;49.506;10.400;2023-03-05T07:16:40;34.37;;;18.83;;
9422;SDS011;65863;49.506;10.400;2023-03-05T07:19:25;35.57;;;18.20;;
9422;SDS011;65863;49.506;10.400;2023-03-05T07:22:09;33.73;;;18.27;;
9422;SDS011;65863;49.506;10.400;2023-03-05T07:24:54;31.80;;;17.60;;
9422;SDS011;65863;49.506;10.400;2023-03-05T07:27:38;31.70;;;19.20;;
9422;SDS011;65863;49.506;10.400;2023-03-05T07:30:22;31.07;;;17.27;;
9422;SDS011;65863;49.506;10.400;2023-03-05T07:33:06;30.57;;;17.73;;
9422;SDS011;65863;49.506;10.400;2023-03-05T07:35:50;34.10;;;18.73;;
9422;SDS011;65863;49.506;10.400;2023-03-05T07:38:34;33.10;;;18.20;;
9422;SDS011;65863;49.506;10.400;2023-03-05T07:41:19;33.17;;;19.57;;
9422;SDS011;65863;49.506;10.400;2023-03-05T07:44:04;26.13;;;16.73;;
9422;SDS011;65863;49.506;10.400;2023-03-05T07:46:48;30.47;;;16.97;;
9422;SDS011;65863;49.506;10.400;2023-03-05T07:49:32;39.80;;;20.67;;
9422;SDS011;65863;49.506;10.400;2023-03-05T07:52:18;27.27;;;16.43;;
9422;SDS011;65863;49.506;10.400;2023-03-05T07:55:02;28.90;;;17.07;;
9422;SDS011;65863;49.506;10.400;2023-03-05T07:57:46;33.03;;;20.00;;
9422;SDS011;65863;49.506;10.400;2023-03-05T08:00:30;29.37;;;15.87;;
9422;SDS011;65863;49.506;10.400;2023-03-05T08:03:14;29.47;;;16.73;;
9422;SDS011;65863;49.506;10.400;2023-03-05T08:05:58;27.73;;;14.93;;
9422;SDS011;65863;49.506;10.400;2023-03-05T08:08:42;27.77;;;15.97;;
9422;SDS011;65863;49.506;10.400;2023-03-05T08:11:26;25.43;;;15.77;;
9422;SDS011;65863;49.506;10.400;2023-03-05T08:14:11;25.13;;;15.07;;
9422;SDS011;65863;49.506;10.400;2023-03-05T08:16:56;25.27;;;15.00;;
9422;SDS011;65863;49.506;10.400;2023-03-05T08:19:40;22.90;;;14.40;;
9422;SDS011;65863;49.506;10.400;2023-03-05T08:22:24;22.97;;;14.60;;
9422;SDS011;65863;49.506;10.400;2023-03-05T08:25:09;19.90;;;12.13;;
9422;SDS011;65863;49.506;10.400;2023-03-05T08:27:54;19.23;;;12.23;;
9422;SDS011;65863;49.506;10.400;2023-03-05T08:30:39;17.93;;;10.43;;
9422;SDS011;65863;49.506;10.400;2023-03-05T08:33:23;16.73;;;10.17;;
9422;SDS011;65863;49.506;10.400;2023-03-05T08:36:08;18.37;;;9.63;;
9422;SDS011;65863;49.506;10.400;2023-03-05T08:38:52;16.47;;;9.53;;
9422;SDS011;65863;49.506;10.400;2023-03-05T08:41:36;13.93;;;8.73;;
9422;SDS011;65863;49.506;10.400;2023-03-05T08:44:20;15.60;;;8.63;;
9422;SDS011;65863;49.506;10.400;2023-03-05T08:47:04;14.93;;;8.30;;
9422;SDS011;65863;49.506;10.400;2023-03-05T08:49:48;15.10;;;8.53;;
9422;SDS011;65863;49.506;10.400;2023-03-05T08:52:32;12.60;;;8.70;;
9422;SDS011;65863;49.506;10.400;2023-03-05T08:55:16;14.87;;;8.57;;
9422;SDS011;65863;49.506;10.400;2023-03-05T08:58:01;13.33;;;8.83;;
9422;SDS011;65863;49.506;10.400;2023-03-05T09:00:45;13.03;;;8.63;;
9422;SDS011;65863;49.506;10.400;2023-03-05T09:03:29;20.77;;;10.20;;
9422;SDS011;65863;49.506;10.400;2023-03-05T09:06:13;14.53;;;9.33;;
9422;SDS011;65863;49.506;10.400;2023-03-05T09:08:57;22.60;;;14.47;;
9422;SDS011;65863;49.506;10.400;2023-03-05T09:11:42;18.80;;;9.00;;
9422;SDS011;65863;49.506;10.400;2023-03-05T09:14:25;16.30;;;8.87;;
9422;SDS011;65863;49.506;10.400;2023-03-05T09:17:12;17.47;;;8.33;;
9422;SDS011;65863;49.506;10.400;2023-03-05T09:19:56;10.87;;;6.90;;
9422;SDS011;65863;49.506;10.400;2023-03-05T09:22:40;13.30;;;8.10;;
9422;SDS011;65863;49.506;10.400;2023-03-05T09:25:25;13.57;;;8.20;;
9422;SDS011;65863;49.506;10.400;2023-03-05T09:28:10;18.10;;;11.37;;
9422;SDS011;65863;49.506;10.400;2023-03-05T09:30:54;60.73;;;26.30;;
9422;SDS011;65863;49.506;10.400;2023-03-05T09:33:38;32.57;;;16.17;;
9422;SDS011;65863;49.506;10.400;2023-03-05T09:36:24;12.70;;;7.37;;
9422;SDS011;65863;49.506;10.400;2023-03-05T09:39:11;12.67;;;7.20;;
9422;SDS011;65863;49.506;10.400;2023-03-05T09:45:31;8.80;;;6.90;;
9422;SDS011;65863;49.506;10.400;2023-03-05T09:51:06;10.13;;;5.60;;
9422;SDS011;65863;49.506;10.400;2023-03-05T09:54:00;6.97;;;4.17;;
9422;SDS011;65863;49.506;10.400;2023-03-05T09:56:50;6.37;;;4.77;;
9422;SDS011;65863;49.506;10.400;2023-03-05T09:59:43;7.90;;;4.23;;
9422;SDS011;65863;49.506;10.400;2023-03-05T10:02:33;4.97;;;3.00;;
9422;SDS011;65863;49.506;10.400;2023-03-05T10:05:25;6.63;;;3.40;;
9422;SDS011;65863;49.506;10.400;2023-03-05T10:08:16;5.03;;;3.07;;
9422;SDS011;65863;49.506;10.400;2023-03-05T10:11:05;5.80;;;3.40;;
9422;SDS011;65863;49.506;10.400;2023-03-05T10:14:02;4.47;;;2.90;;
9422;SDS011;65863;49.506;10.400;2023-03-05T10:23:48;5.07;;;2.60;;
9422;SDS011;65863;49.506;10.400;2023-03-05T10:26:44;5.27;;;2.50;;
9422;SDS011;65863;49.506;10.400;2023-03-05T10:29:53;3.73;;;2.10;;
9422;SDS011;65863;49.506;10.400;2023-03-05T10:32:53;5.43;;;2.40;;
9422;SDS011;65863;49.506;10.400;2023-03-05T10:42:15;7.60;;;2.60;;
9422;SDS011;65863;49.506;10.400;2023-03-05T10:48:22;3.03;;;2.47;;
9422;SDS011;65863;49.506;10.400;2023-03-05T10:51:14;5.70;;;3.50;;
9422;SDS011;65863;49.506;10.400;2023-03-05T11:02:56;4.83;;;2.10;;
9422;SDS011;65863;49.506;10.400;2023-03-05T11:05:49;3.67;;;2.47;;
9422;SDS011;65863;49.506;10.400;2023-03-05T11:08:41;4.50;;;2.53;;
9422;SDS011;65863;49.506;10.400;2023-03-05T11:11:24;4.13;;;2.20;;
9422;SDS011;65863;49.506;10.400;2023-03-05T11:14:22;4.93;;;3.30;;
9422;SDS011;65863;49.506;10.400;2023-03-05T11:17:33;2.73;;;1.87;;
9422;SDS011;65863;49.506;10.400;2023-03-05T11:23:42;4.80;;;2.10;;
9422;SDS011;65863;49.506;10.400;2023-03-05T11:26:21;3.67;;;2.30;;
9422;SDS011;65863;49.506;10.400;2023-03-05T11:29:12;3.93;;;2.03;;
9422;SDS011;65863;49.506;10.400;2023-03-05T11:32:19;4.33;;;3.23;;
9422;SDS011;65863;49.506;10.400;2023-03-05T11:35:09;4.53;;;2.83;;
9422;SDS011;65863;49.506;10.400;2023-03-05T11:38:23;5.50;;;2.40;;
9422;SDS011;65863;49.506;10.400;2023-03-05T11:41:08;3.33;;;2.50;;
9422;SDS011;65863;49.506;10.400;2023-03-05T11:43:53;4.53;;;2.13;;
9422;SDS011;65863;49.506;10.400;2023-03-05T11:46:40;2.57;;;1.83;;
9422;SDS011;65863;49.506;10.400;2023-03-05T11:49:27;3.47;;;1.80;;
9422;SDS011;65863;49.506;10.400;2023-03-05T11:52:33;3.30;;;1.60;;
9422;SDS011;65863;49.506;10.400;2023-03-05T11:55:34;3.10;;;1.80;;
9422;SDS011;65863;49.506;10.400;2023-03-05T11:58:38;4.97;;;2.47;;
9422;SDS011;65863;49.506;10.400;2023-03-05T12:01:24;2.47;;;1.83;;
9422;SDS011;65863;49.506;10.400;2023-03-05T12:04:11;6.47;;;2.30;;
9422;SDS011;65863;49.506;10.400;2023-03-05T12:06:56;4.23;;;2.17;;
9422;SDS011;65863;49.506;10.400;2023-03-05T12:09:44;2.93;;;2.03;;
9422;SDS011;65863;49.506;10.400;2023-03-05T12:21:22;3.50;;;2.30;;
9422;SDS011;65863;49.506;10.400;2023-03-05T12:27:07;3.20;;;2.90;;
9422;SDS011;65863;49.506;10.400;2023-03-05T12:29:53;10.43;;;3.47;;
9422;SDS011;65863;49.506;10.400;2023-03-05T12:35:31;6.47;;;3.10;;
9422;SDS011;65863;49.506;10.400;2023-03-05T12:38:30;4.93;;;3.27;;
9422;SDS011;65863;49.506;10.400;2023-03-05T12:49:55;4.70;;;3.53;;
9422;SDS011;65863;49.506;10.400;2023-03-05T12:52:39;47.47;;;28.23;;
9422;SDS011;65863;49.506;10.400;2023-03-05T12:55:29;5.47;;;3.90;;
9422;SDS011;65863;49.506;10.400;2023-03-05T13:04:18;8.80;;;4.50;;
9422;SDS011;65863;49.506;10.400;2023-03-05T13:07:15;15.10;;;9.33;;
9422;SDS011;65863;49.506;10.400;2023-03-05T13:10:00;7.33;;;4.27;;
9422;SDS011;65863;49.506;10.400;2023-03-05T13:12:48;8.97;;;4.40;;
9422;SDS011;65863;49.506;10.400;2023-03-05T13:15:35;6.63;;;3.90;;
9422;SDS011;65863;49.506;10.400;2023-03-05T13:18:23;8.40;;;4.07;;
9422;SDS011;65863;49.506;10.400;2023-03-05T13:21:13;6.57;;;4.50;;
9422;SDS011;65863;49.506;10.400;2023-03-05T13:24:00;4.47;;;3.80;;
9422;SDS011;65863;49.506;10.400;2023-03-05T13:26:46;6.20;;;3.13;;
9422;SDS011;65863;49.506;10.400;2023-03-05T13:29:36;5.83;;;4.37;;
9422;SDS011;65863;49.506;10.400;2023-03-05T13:32:34;7.03;;;3.80;;
9422;SDS011;65863;49.506;10.400;2023-03-05T13:35:18;6.37;;;3.97;;
9422;SDS011;65863;49.506;10.400;2023-03-05T13:38:03;7.80;;;3.70;;
9422;SDS011;65863;49.506;10.400;2023-03-05T13:40:59;7.97;;;4.33;;
9422;SDS011;65863;49.506;10.400;2023-03-05T13:43:58;18.07;;;11.27;;
9422;SDS011;65863;49.506;10.400;2023-03-05T13:46:43;6.77;;;3.40;;
9422;SDS011;65863;49.506;10.400;2023-03-05T13:49:28;6.77;;;3.80;;
9422;SDS011;65863;49.506;10.400;2023-03-05T13:52:12;8.90;;;4.10;;
9422;SDS011;65863;49.506;10.400;2023-03-05T13:55:11;6.57;;;3.63;;
9422;SDS011;65863;49.506;10.400;2023-03-05T13:57:57;5.90;;;4.60;;
9422;SDS011;65863;49.506;10.400;2023-03-05T14:00:41;9.70;;;5.43;;
9422;SDS011;65863;49.506;10.400;2023-03-05T14:03:26;8.60;;;4.67;;
9422;SDS011;65863;49.506;10.400;2023-03-05T14:06:14;5.27;;;3.83;;
9422;SDS011;65863;49.506;10.400;2023-03-05T14:09:06;4.70;;;4.03;;
9422;SDS011;65863;49.506;10.400;2023-03-05T14:12:01;5.27;;;3.73;;
9422;SDS011;65863;49.506;10.400;2023-03-05T14:14:48;7.70;;;4.13;;
9422;SDS011;65863;49.506;10.400;2023-03-05T14:17:37;7.20;;;4.53;;
9422;SDS011;65863;49.506;10.400;2023-03-05T14:20:27;6.73;;;3.90;;
9422;SDS011;65863;49.506;10.400;2023-03-05T14:26:20;7.20;;;4.30;;
9422;SDS011;65863;49.506;10.400;2023-03-05T14:29:16;7.33;;;5.20;;
9422;SDS011;65863;49.506;10.400;2023-03-05T14:32:04;37.63;;;24.23;;
9422;SDS011;65863;49.506;10.400;2023-03-05T14:34:56;88.00;;;35.83;;
9422;SDS011;65863;49.506;10.400;2023-03-05T14:37:43;143.30;;;61.33;;
9422;SDS011;65863;49.506;10.400;2023-03-05T14:40:32;17.43;;;10.30;;
9422;SDS011;65863;49.506;10.400;2023-03-05T14:43:17;19.73;;;11.93;;
9422;SDS011;65863;49.506;10.400;2023-03-05T14:46:03;7.20;;;5.60;;
9422;SDS011;65863;49.506;10.400;2023-03-05T14:48:47;8.17;;;4.33;;
9422;SDS011;65863;49.506;10.400;2023-03-05T14:51:32;5.03;;;4.17;;
9422;SDS011;65863;49.506;10.400;2023-03-05T14:54:22;7.80;;;4.30;;
9422;SDS011;65863;49.506;10.400;2023-03-05T14:57:09;5.53;;;4.03;;
9422;SDS011;65863;49.506;10.400;2023-03-05T14:59:58;5.43;;;4.10;;
9422;SDS011;65863;49.506;10.400;2023-03-05T15:02:43;8.07;;;4.63;;
9422;SDS011;65863;49.506;10.400;2023-03-05T15:05:27;5.77;;;4.10;;
9422;SDS011;65863;49.506;10.400;2023-03-05T15:08:20;7.37;;;4.53;;
9422;SDS011;65863;49.506;10.400;2023-03-05T15:11:06;6.83;;;4.33;;
9422;SDS011;65863;49.506;10.400;2023-03-05T15:13:50;5.27;;;4.00;;
9422;SDS011;65863;49.506;10.400;2023-03-05T15:16:34;5.20;;;3.80;;
9422;SDS011;65863;49.506;10.400;2023-03-05T15:19:18;9.00;;;4.87;;
9422;SDS011;65863;49.506;10.400;2023-03-05T15:22:02;5.23;;;4.10;;
9422;SDS011;65863;49.506;10.400;2023-03-05T15:24:46;6.93;;;4.73;;
9422;SDS011;65863;49.506;10.400;2023-03-05T15:27:30;5.80;;;4.43;;
9422;SDS011;65863;49.506;10.400;2023-03-05T15:30:22;8.17;;;3.97;;
9422;SDS011;65863;49.506;10.400;2023-03-05T15:33:21;7.00;;;4.43;;
9422;SDS011;65863;49.506;10.400;2023-03-05T15:36:06;6.13;;;4.03;;
9422;SDS011;65863;49.506;10.400;2023-03-05T15:38:51;6.03;;;4.07;;
9422;SDS011;65863;49.506;10.400;2023-03-05T15:41:35;6.37;;;4.40;;
9422;SDS011;65863;49.506;10.400;2023-03-05T15:44:20;9.77;;;4.57;;
9422;SDS011;65863;49.506;10.400;2023-03-05T15:47:05;6.70;;;4.37;;
9422;SDS011;65863;49.506;10.400;2023-03-05T15:49:49;8.23;;;4.37;;
9422;SDS011;65863;49.506;10.400;2023-03-05T15:52:34;8.70;;;4.10;;
9422;SDS011;65863;49.506;10.400;2023-03-05T15:55:18;7.70;;;4.50;;
9422;SDS011;65863;49.506;10.400;2023-03-05T15:58:02;7.03;;;4.63;;
9422;SDS011;65863;49.506;10.400;2023-03-05T16:00:46;6.70;;;4.30;;
9422;SDS011;65863;49.506;10.400;2023-03-05T16:03:31;6.77;;;4.53;;
9422;SDS011;65863;49.506;10.400;2023-03-05T16:06:16;6.77;;;4.37;;
9422;SDS011;65863;49.506;10.400;2023-03-05T16:09:05;6.57;;;4.77;;
9422;SDS011;65863;49.506;10.400;2023-03-05T16:11:49;9.70;;;5.17;;
9422;SDS011;65863;49.506;10.400;2023-03-05T16:14:34;8.03;;;4.27;;
9422;SDS011;65863;49.506;10.400;2023-03-05T16:17:21;6.50;;;3.90;;
9422;SDS011;65863;49.506;10.400;2023-03-05T16:20:06;7.40;;;4.70;;
9422;SDS011;65863;49.506;10.400;2023-03-05T16:22:52;6.57;;;4.37;;
9422;SDS011;65863;49.506;10.400;2023-03-05T16:25:37;6.87;;;4.77;;
9422;SDS011;65863;49.506;10.400;2023-03-05T16:28:21;7.67;;;4.47;;
9422;SDS011;65863;49.506;10.400;2023-03-05T16:31:05;12.30;;;7.03;;
9422;SDS011;65863;49.506;10.400;2023-03-05T16:33:49;12.43;;;7.57;;
9422;SDS011;65863;49.506;10.400;2023-03-05T16:36:34;11.13;;;6.60;;
9422;SDS011;65863;49.506;10.400;2023-03-05T16:39:19;11.00;;;5.53;;
9422;SDS011;65863;49.506;10.400;2023-03-05T16:42:04;6.27;;;4.53;;
9422;SDS011;65863;49.506;10.400;2023-03-05T16:44:48;6.50;;;4.87;;
9422;SDS011;65863;49.506;10.400;2023-03-05T16:47:32;7.73;;;4.37;;
9422;SDS011;65863;49.506;10.400;2023-03-05T16:50:17;7.93;;;4.90;;
9422;SDS011;65863;49.506;10.400;2023-03-05T16:53:01;14.17;;;5.10;;
9422;SDS011;65863;49.506;10.400;2023-03-05T16:55:45;7.30;;;4.47;;
9422;SDS011;65863;49.506;10.400;2023-03-05T16:58:29;8.17;;;4.67;;
9422;SDS011;65863;49.506;10.400;2023-03-05T17:01:15;8.03;;;5.10;;
9422;SDS011;65863;49.506;10.400;2023-03-05T17:04:01;7.30;;;5.07;;
9422;SDS011;65863;49.506;10.400;2023-03-05T17:06:46;7.90;;;4.80;;
9422;SDS011;65863;49.506;10.400;2023-03-05T17:09:31;8.03;;;5.00;;
9422;SDS011;65863;49.506;10.400;2023-03-05T17:12:16;7.03;;;4.73;;
9422;SDS011;65863;49.506;10.400;2023-03-05T17:15:00;15.03;;;7.73;;
9422;SDS011;65863;49.506;10.400;2023-03-05T17:17:44;13.13;;;5.43;;
9422;SDS011;65863;49.506;10.400;2023-03-05T17:20:28;10.55;;;7.82;;
9422;SDS011;65863;49.506;10.400;2023-03-05T17:23:12;14.70;;;11.03;;
9422;SDS011;65863;49.506;10.400;2023-03-05T17:25:56;18.10;;;10.37;;
9422;SDS011;65863;49.506;10.400;2023-03-05T17:28:40;8.63;;;5.23;;
9422;SDS011;65863;49.506;10.400;2023-03-05T17:31:25;12.17;;;7.83;;
9422;SDS011;65863;49.506;10.400;2023-03-05T17:34:09;12.93;;;8.23;;